Time;durP1;ratioP1;P1;durP2;ratioP2;P2;SDS_P1;SDS_P2;PMS_P1;PMS_P2;Temp;Humidity;BMP_temperature;BMP_pressure;BME280_temperature;BME280_humidity;BME280_pressure;Samples;Min_cycle;Max_cycle;Signal;HPM_P1;HPM_P2
2022/01/08 00:00:46;;;;;;;0.00;0.00;;;0.00;99.90;;;;;;6190961;23;19985;-68
2022/01/08 00:03:12;;;;;;;0.00;0.00;;;0.00;99.90;;;;;;6189748;23;19995;-68
2022/01/08 00:05:37;;;;;;;0.00;0.00;;;0.00;99.90;;;;;;6190818;23;20040;-68
2022/01/08 00:08:04;;;;;;;0.00;0.00;;;0.00;99.90;;;;;;6190992;23;19999;-68
2022/01/08 00:10:31;;;;;;;0.00;0.00;;;0.00;99.90;;;;;;6189347;23;20387;-67
2022/01/08 00:13:01;;;;;;;0.00;0.00;;;0.00;99.90;;;;;;6191020;23;20000;-67
2022/01/08 00:15:27;;;;;;;0.00;0.00;;;0.00;99.90;;;;;;6190959;23;20008;-67
2022/01/08 00:17:52;;;;;;;0.00;0.00;;;0.00;99.90;;;;;;6190638;23;20000;-67
2022/01/08 00:20:18;;;;;;;0.00;0.00;;;0.00;99.90;;;;;;6190974;23;19996;-68
2022/01/08 00:22:44;;;;;;;0.00;0.00;;;0.00;99.90;;;;;;6189542;23;19989;-70
2022/01/08 00:25:10;;;;;;;0.00;0.00;;;0.00;99.90;;;;;;6189992;23;20041;-69
2022/01/08 00:27:36;;;;;;;0.00;0.00;;;0.00;99.90;;;;;;6188673;23;20020;-68
2022/01/08 00:30:03;;;;;;;0.00;0.00;;;0.00;99.90;;;;;;6190729;23;20284;-67
2022/01/08 00:32:29;;;;;;;0.00;0.00;;;0.00;99.90;;;;;;6190625;23;19993;-68
2022/01/08 00:34:55;;;;;;;0.00;0.00;;;0.00;99.90;;;;;;6191188;23;20004;-68
2022/01/08 00:37:20;;;;;;;0.00;0.00;;;0.00;99.90;;;;;;6189991;23;19989;-68
2022/01/08 00:39:47;;;;;;;0.00;0.00;;;0.10;99.90;;;;;;6190941;23;20020;-69
2022/01/08 00:42:14;;;;;;;0.00;0.00;;;0.10;99.90;;;;;;6189512;23;19989;-68
2022/01/08 00:44:40;;;;;;;0.00;0.00;;;0.10;99.90;;;;;;6188740;23;19997;-71
2022/01/08 00:47:06;;;;;;;0.00;0.00;;;0.10;99.90;;;;;;6190647;23;20004;-68
2022/01/08 00:49:32;;;;;;;0.00;0.00;;;0.20;99.90;;;;;;6188904;23;19993;-67
2022/01/08 00:51:58;;;;;;;0.00;0.00;;;0.20;99.90;;;;;;6190894;23;20055;-69
2022/01/08 00:54:24;;;;;;;0.00;0.00;;;0.20;99.90;;;;;;6190262;23;19996;-69
2022/01/08 00:56:50;;;;;;;0.00;0.00;;;0.20;99.90;;;;;;6190611;23;20005;-68
2022/01/08 00:59:16;;;;;;;0.00;0.00;;;0.20;99.90;;;;;;6189942;23;19989;-68
2022/01/08 01:01:42;;;;;;;0.00;0.00;;;0.20;99.90;;;;;;6189877;23;20027;-68
2022/01/08 01:04:08;;;;;;;0.00;0.00;;;0.20;99.90;;;;;;6162426;23;20184;-68
2022/01/08 01:06:34;;;;;;;0.00;0.00;;;0.10;99.90;;;;;;6188903;23;19988;-69
2022/01/08 01:08:59;;;;;;;0.00;0.00;;;0.10;99.90;;;;;;6190300;23;19997;-69
2022/01/08 01:11:25;;;;;;;0.00;0.00;;;0.10;99.90;;;;;;6163445;23;19997;-69
2022/01/08 01:13:51;;;;;;;0.00;0.00;;;0.10;99.90;;;;;;6190507;23;19989;-69
2022/01/08 01:16:18;;;;;;;0.00;0.00;;;0.10;99.90;;;;;;6163799;23;20036;-68
2022/01/08 01:18:44;;;;;;;0.00;0.00;;;0.10;99.90;;;;;;6190759;23;20014;-68
2022/01/08 01:21:10;;;;;;;0.00;0.00;;;0.10;99.90;;;;;;6190362;23;20183;-68
2022/01/08 01:23:41;;;;;;;0.00;0.00;;;0.10;99.90;;;;;;6164620;23;20016;-68
2022/01/08 01:26:11;;;;;;;0.00;0.00;;;0.10;99.90;;;;;;6190780;23;20046;-68
2022/01/08 01:47:11;;;;;;;0.00;0.00;;;0.10;99.90;;;;;;6189659;23;20003;-70
2022/01/08 01:49:41;;;;;;;0.00;0.00;;;0.10;99.90;;;;;;6190537;23;20001;-78
2022/01/08 01:52:10;;;;;;;0.00;0.00;;;0.20;99.90;;;;;;6183036;23;20013;-78
2022/01/08 01:54:36;;;;;;;0.00;0.00;;;0.20;99.90;;;;;;6190760;23;19989;-77
2022/01/08 01:57:04;;;;;;;0.00;0.00;;;0.20;99.90;;;;;;6189370;23;20000;-77
2022/01/08 01:59:32;;;;;;;0.00;0.00;;;0.30;99.90;;;;;;6188586;23;20315;-74
2022/01/08 02:01:58;;;;;;;0.00;0.00;;;0.30;99.90;;;;;;6188501;23;20020;-79
2022/01/08 02:04:24;;;;;;;0.00;0.00;;;0.30;99.90;;;;;;6189625;23;19996;-78
2022/01/08 02:06:50;;;;;;;0.00;0.00;;;0.30;99.90;;;;;;6188279;23;20031;-74
2022/01/08 02:09:16;;;;;;;0.00;0.00;;;0.30;99.90;;;;;;6189603;23;19989;-75
2022/01/08 02:12:02;;;;;;;0.00;0.00;;;0.30;99.90;;;;;;6188199;23;20178;-74
2022/01/08 02:14:30;;;;;;;0.00;0.00;;;0.30;99.90;;;;;;6189578;23;19989;-79
2022/01/08 02:16:56;;;;;;;0.00;0.00;;;0.30;99.90;;;;;;6190186;23;20255;-77
2022/01/08 02:19:22;;;;;;;0.00;0.00;;;0.30;99.90;;;;;;6189144;23;19986;-77
2022/01/08 02:21:57;;;;;;;0.00;0.00;;;0.40;99.90;;;;;;6190532;23;20322;-78
2022/01/08 02:24:24;;;;;;;0.00;0.00;;;0.40;99.90;;;;;;6191559;23;20011;-78
2022/01/08 02:26:50;;;;;;;0.00;0.00;;;0.30;99.90;;;;;;6190135;23;20291;-79
2022/01/08 02:29:19;;;;;;;0.00;0.00;;;0.30;99.90;;;;;;6191895;23;19989;-81
2022/01/08 02:32:00;;;;;;;0.00;0.00;;;0.30;99.90;;;;;;6191472;23;19993;-82
2022/01/08 02:34:27;;;;;;;0.00;0.00;;;0.20;99.90;;;;;;6191228;23;20064;-83
2022/01/08 02:36:55;;;;;;;0.00;0.00;;;0.30;99.90;;;;;;6190799;23;19993;-83
2022/01/08 02:39:20;;;;;;;0.00;0.00;;;0.20;99.90;;;;;;6190399;23;19989;-79
2022/01/08 02:41:46;;;;;;;0.00;0.00;;;0.20;99.90;;;;;;6191067;23;19996;-82
2022/01/08 02:44:14;;;;;;;0.00;0.00;;;0.30;99.90;;;;;;6190495;23;20060;-81
2022/01/08 02:46:41;;;;;;;0.00;0.00;;;0.20;99.90;;;;;;6190518;23;19993;-81
2022/01/08 02:49:07;;;;;;;0.00;0.00;;;0.20;99.90;;;;;;6190967;23;20287;-81
2022/01/08 02:51:35;;;;;;;0.00;0.00;;;0.30;99.90;;;;;;6191825;23;20009;-82
2022/01/08 02:54:03;;;;;;;0.00;0.00;;;0.30;99.90;;;;;;6165948;23;20338;-81
2022/01/08 02:56:28;;;;;;;0.00;0.00;;;0.40;99.90;;;;;;6165245;23;19989;-81
2022/01/08 02:58:54;;;;;;;0.00;0.00;;;0.40;99.90;;;;;;6192633;23;20126;-81
2022/01/08 03:01:20;;;;;;;0.00;0.00;;;0.40;99.90;;;;;;6165055;23;20288;-81
2022/01/08 03:03:46;;;;;;;0.00;0.00;;;0.50;99.90;;;;;;6192923;23;20011;-82
2022/01/08 03:06:12;;;;;;;0.00;0.00;;;0.40;99.90;;;;;;6192461;23;20267;-76
2022/01/08 03:08:38;;;;;;;0.00;0.00;;;0.40;99.90;;;;;;6192939;23;20045;-78
2022/01/08 03:11:03;;;;;;;0.00;0.00;;;0.40;99.90;;;;;;6192215;23;20310;-77
2022/01/08 03:13:29;;;;;;;0.00;0.00;;;0.40;99.90;;;;;;6165054;23;20019;-79
2022/01/08 03:15:55;;;;;;;0.00;0.00;;;0.40;99.90;;;;;;6165266;23;20000;-79
2022/01/08 03:18:21;;;;;;;0.00;0.00;;;0.40;99.90;;;;;;6164640;23;20171;-78
2022/01/08 03:21:00;;;;;;;0.00;0.00;;;0.30;99.90;;;;;;6165526;23;19993;-79
2022/01/08 03:23:35;;;;;;;0.00;0.00;;;0.30;99.90;;;;;;6165599;23;20320;-78
2022/01/08 03:26:01;;;;;;;0.00;0.00;;;0.30;99.90;;;;;;6165453;23;20183;-78
2022/01/08 03:28:26;;;;;;;0.00;0.00;;;0.30;99.90;;;;;;6191261;23;19997;-78
2022/01/08 03:30:52;;;;;;;0.00;0.00;;;0.20;99.90;;;;;;6165290;23;20342;-77
2022/01/08 03:33:18;;;;;;;0.00;0.00;;;0.20;99.90;;;;;;6165164;23;20187;-78
2022/01/08 03:35:43;;;;;;;0.00;0.00;;;0.20;99.90;;;;;;6166023;23;19993;-78
2022/01/08 03:38:09;;;;;;;0.00;0.00;;;0.30;99.90;;;;;;6165473;23;20302;-78
2022/01/08 03:40:35;;;;;;;0.00;0.00;;;0.30;99.90;;;;;;6164702;23;19989;-79
2022/01/08 03:43:00;;;;;;;0.00;0.00;;;0.20;99.90;;;;;;6165084;23;20302;-77
2022/01/08 03:45:26;;;;;;;0.00;0.00;;;0.30;99.90;;;;;;6164830;23;20009;-81
2022/01/08 03:48:05;;;;;;;0.00;0.00;;;0.30;99.90;;;;;;6191300;23;20048;-79
2022/01/08 03:50:31;;;;;;;0.00;0.00;;;0.30;99.90;;;;;;6164405;23;20009;-81
2022/01/08 03:52:57;;;;;;;0.00;0.00;;;0.30;99.90;;;;;;6165124;23;20180;-81
2022/01/08 03:55:22;;;;;;;0.00;0.00;;;0.30;99.90;;;;;;6191044;23;20013;-81
2022/01/08 03:57:48;;;;;;;0.00;0.00;;;0.30;99.90;;;;;;6165354;23;19997;-78
2022/01/08 04:00:15;;;;;;;0.00;0.00;;;0.40;99.90;;;;;;6191153;23;19993;-79
2022/01/08 04:02:41;;;;;;;0.00;0.00;;;0.40;99.90;;;;;;6165310;23;19993;-80
2022/01/08 04:05:07;;;;;;;0.00;0.00;;;0.40;99.90;;;;;;6190987;23;20016;-79
2022/01/08 04:07:33;;;;;;;0.00;0.00;;;0.40;99.90;;;;;;6164628;23;20210;-80
2022/01/08 04:09:58;;;;;;;0.00;0.00;;;0.40;99.90;;;;;;6165563;23;20020;-79
2022/01/08 04:12:37;;;;;;;0.00;0.00;;;0.40;99.90;;;;;;6190287;23;20072;-80
2022/01/08 04:15:19;;;;;;;0.00;0.00;;;0.40;99.90;;;;;;6190981;23;19986;-77
2022/01/08 04:17:45;;;;;;;0.00;0.00;;;0.30;99.90;;;;;;6164566;23;20060;-77
2022/01/08 04:20:11;;;;;;;0.00;0.00;;;0.30;99.90;;;;;;6191107;23;19996;-78
2022/01/08 04:22:36;;;;;;;0.00;0.00;;;0.30;99.90;;;;;;6164402;23;19993;-79
2022/01/08 04:25:02;;;;;;;0.00;0.00;;;0.30;99.90;;;;;;6164798;23;20125;-78
2022/01/08 04:27:28;;;;;;;0.00;0.00;;;0.30;99.90;;;;;;6163826;23;20138;-78
2022/01/08 04:29:54;;;;;;;0.00;0.00;;;0.30;99.90;;;;;;6191458;23;19985;-79
2022/01/08 04:32:20;;;;;;;0.00;0.00;;;0.30;99.90;;;;;;6164054;23;20004;-78
2022/01/08 04:34:46;;;;;;;0.00;0.00;;;0.30;99.90;;;;;;6165035;23;20097;-79
2022/01/08 04:37:11;;;;;;;0.00;0.00;;;0.30;99.90;;;;;;6164636;23;19999;-79
2022/01/08 04:39:37;;;;;;;0.00;0.00;;;0.30;99.90;;;;;;6190405;23;19997;-78
2022/01/08 04:42:03;;;;;;;0.00;0.00;;;0.30;99.90;;;;;;6190980;23;19992;-78
2022/01/08 04:44:29;;;;;;;0.00;0.00;;;0.30;99.90;;;;;;6164671;23;20012;-78
2022/01/08 04:46:55;;;;;;;0.00;0.00;;;0.30;99.90;;;;;;6191050;23;19989;-76
2022/01/08 04:49:21;;;;;;;0.00;0.00;;;0.30;99.90;;;;;;6164187;23;19995;-78
2022/01/08 04:51:47;;;;;;;0.00;0.00;;;0.30;99.90;;;;;;6179194;23;20124;-78
2022/01/08 04:54:13;;;;;;;0.00;0.00;;;0.30;99.90;;;;;;6189256;23;19993;-78
2022/01/08 04:56:39;;;;;;;0.00;0.00;;;0.30;99.90;;;;;;6189214;23;20284;-77
2022/01/08 04:59:05;;;;;;;0.00;0.00;;;0.30;99.90;;;;;;6189220;23;19996;-75
2022/01/08 05:01:30;;;;;;;0.00;0.00;;;0.30;99.90;;;;;;6188475;23;19997;-78
2022/01/08 05:03:57;;;;;;;0.00;0.00;;;0.30;99.90;;;;;;6190236;23;19996;-80
2022/01/08 05:06:22;;;;;;;0.00;0.00;;;0.30;99.90;;;;;;6190430;23;19989;-83
2022/01/08 05:08:48;;;;;;;0.00;0.00;;;0.30;99.90;;;;;;6190365;23;20024;-82
2022/01/08 05:11:14;;;;;;;0.00;0.00;;;0.30;99.90;;;;;;6190937;23;19997;-76
2022/01/08 05:13:42;;;;;;;0.00;0.00;;;0.30;99.90;;;;;;6190260;23;20056;-76
2022/01/08 05:16:08;;;;;;;0.00;0.00;;;0.30;99.90;;;;;;6190972;23;19988;-82
2022/01/08 05:18:34;;;;;;;0.00;0.00;;;0.30;99.90;;;;;;6190638;23;19993;-83
2022/01/08 05:23:58;;;;;;;0.00;0.00;;;0.30;99.90;;;;;;6157425;23;19997;-80
2022/01/08 05:26:26;;;;;;;0.00;0.00;;;0.30;99.90;;;;;;6190440;23;19989;-77
2022/01/08 05:29:14;;;;;;;0.00;0.00;;;0.30;99.90;;;;;;6189151;23;20001;-77
2022/01/08 05:31:39;;;;;;;0.00;0.00;;;0.30;99.90;;;;;;6189262;23;20324;-77
2022/01/08 05:34:05;;;;;;;0.00;0.00;;;0.40;99.90;;;;;;6189619;23;19996;-81
2022/01/08 05:36:31;;;;;;;0.00;0.00;;;0.30;99.90;;;;;;6189852;23;20016;-87
2022/01/08 05:38:56;;;;;;;0.00;0.00;;;0.30;99.90;;;;;;6191477;23;19997;-87
2022/01/08 05:41:22;;;;;;;0.00;0.00;;;0.30;99.90;;;;;;6189895;23;20005;-86
2022/01/08 05:43:48;;;;;;;0.00;0.00;;;0.30;99.90;;;;;;6191031;23;19995;-86
2022/01/08 05:46:14;;;;;;;0.00;0.00;;;0.40;99.90;;;;;;6189689;23;20066;-74
2022/01/08 05:48:40;;;;;;;0.00;0.00;;;0.40;99.90;;;;;;6188906;23;20005;-75
2022/01/08 05:51:06;;;;;;;0.00;0.00;;;0.40;99.90;;;;;;6190367;23;20005;-78
2022/01/08 05:53:32;;;;;;;0.00;0.00;;;0.40;99.90;;;;;;6163369;23;20052;-78
2022/01/08 05:55:58;;;;;;;0.00;0.00;;;0.40;99.90;;;;;;6163922;23;20013;-78
2022/01/08 05:58:24;;;;;;;0.00;0.00;;;0.40;99.90;;;;;;6189853;23;20012;-82
2022/01/08 06:00:49;;;;;;;0.00;0.00;;;0.40;99.90;;;;;;6164273;23;20301;-81
2022/01/08 06:03:16;;;;;;;0.00;0.00;;;0.30;99.90;;;;;;6190663;23;20028;-80
2022/01/08 06:05:42;;;;;;;0.00;0.00;;;0.40;99.90;;;;;;6190677;23;20303;-81
2022/01/08 06:08:08;;;;;;;0.00;0.00;;;0.30;99.90;;;;;;6164395;23;20000;-81
2022/01/08 06:10:33;;;;;;;0.00;0.00;;;0.30;99.90;;;;;;6164392;23;19996;-82
2022/01/08 06:12:59;;;;;;;0.00;0.00;;;0.30;99.90;;;;;;6164752;23;20069;-81
2022/01/08 06:15:25;;;;;;;0.00;0.00;;;0.30;99.90;;;;;;6191061;23;20041;-81
2022/01/08 06:17:51;;;;;;;0.00;0.00;;;0.30;99.90;;;;;;6190401;23;20221;-81
2022/01/08 06:20:17;;;;;;;0.00;0.00;;;0.30;99.90;;;;;;6191242;23;19990;-79
2022/01/08 06:22:42;;;;;;;0.00;0.00;;;0.40;99.90;;;;;;6166022;23;20275;-82
2022/01/08 06:25:08;;;;;;;0.00;0.00;;;0.50;99.90;;;;;;6166661;23;20000;-81
2022/01/08 06:27:34;;;;;;;0.00;0.00;;;0.50;99.90;;;;;;6192517;23;19997;-84
2022/01/08 06:30:00;;;;;;;0.00;0.00;;;0.50;99.90;;;;;;6193120;23;20303;-79
2022/01/08 06:32:26;;;;;;;0.00;0.00;;;0.50;99.90;;;;;;6192245;23;19996;-78
2022/01/08 06:34:51;;;;;;;0.00;0.00;;;0.50;99.90;;;;;;6167107;23;20280;-80
2022/01/08 06:37:17;;;;;;;0.00;0.00;;;0.40;99.90;;;;;;6191664;23;19993;-82
2022/01/08 06:39:43;;;;;;;0.00;0.00;;;0.50;99.90;;;;;;6194383;23;20152;-81
2022/01/08 06:42:08;;;;;;;0.00;0.00;;;0.40;99.90;;;;;;6166774;23;20076;-81
2022/01/08 06:44:34;;;;;;;0.00;0.00;;;0.40;99.90;;;;;;6165983;23;19993;-80
2022/01/08 06:47:00;;;;;;;0.00;0.00;;;0.30;99.90;;;;;;6165479;23;19993;-77
2022/01/08 06:49:26;;;;;;;0.00;0.00;;;0.30;99.90;;;;;;6165208;23;19993;-84
2022/01/08 06:51:51;;;;;;;0.00;0.00;;;0.30;99.90;;;;;;6191260;23;20009;-80
2022/01/08 06:54:17;;;;;;;0.00;0.00;;;0.40;99.90;;;;;;6164245;23;19993;-81
2022/01/08 06:56:43;;;;;;;0.00;0.00;;;0.30;99.90;;;;;;6190393;23;19992;-80
2022/01/08 06:59:09;;;;;;;0.00;0.00;;;0.30;99.90;;;;;;6190401;23;19989;-83
2022/01/08 07:01:34;;;;;;;0.00;0.00;;;0.30;99.90;;;;;;6163058;23;20294;-74
2022/01/08 07:04:01;;;;;;;0.00;0.00;;;0.30;99.90;;;;;;6190159;23;20000;-79
2022/01/08 07:06:27;;;;;;;0.00;0.00;;;0.30;99.90;;;;;;6164732;23;19999;-79
2022/01/08 07:08:53;;;;;;;0.00;0.00;;;0.30;99.90;;;;;;6193025;23;20179;-82
2022/01/08 07:11:19;;;;;;;0.00;0.00;;;0.30;99.90;;;;;;6192460;23;19989;-81
2022/01/08 07:13:45;;;;;;;0.00;0.00;;;0.30;99.90;;;;;;6192925;23;19985;-77
2022/01/08 07:16:11;;;;;;;0.00;0.00;;;0.30;99.90;;;;;;6166801;23;20219;-82
2022/01/08 07:18:36;;;;;;;0.00;0.00;;;0.40;99.90;;;;;;6166599;23;20310;-80
2022/01/08 07:21:02;;;;;;;0.00;0.00;;;0.40;99.90;;;;;;6166694;23;19999;-82
2022/01/08 07:23:28;;;;;;;0.00;0.00;;;0.40;99.90;;;;;;6167135;23;19993;-82
2022/01/08 07:25:53;;;;;;;0.00;0.00;;;0.40;99.90;;;;;;6168132;23;20044;-82
2022/01/08 07:28:19;;;;;;;0.00;0.00;;;0.30;99.90;;;;;;6168282;23;20016;-81
2022/01/08 07:30:45;;;;;;;0.00;0.00;;;0.40;99.90;;;;;;6194363;23;19989;-80
2022/01/08 07:33:11;;;;;;;0.00;0.00;;;0.40;99.90;;;;;;6195908;23;19989;-81
2022/01/08 07:35:37;;;;;;;0.00;0.00;;;0.40;99.90;;;;;;6168207;23;19993;-80
2022/01/08 07:38:03;;;;;;;0.00;0.00;;;0.40;99.90;;;;;;6168673;23;20223;-81
2022/01/08 07:40:29;;;;;;;0.00;0.00;;;0.40;99.90;;;;;;6194081;23;19989;-78
2022/01/08 07:42:55;;;;;;;0.00;0.00;;;0.40;99.90;;;;;;6166756;23;20231;-76
2022/01/08 07:45:21;;;;;;;0.00;0.00;;;0.40;99.90;;;;;;6192204;23;20272;-78
2022/01/08 07:47:48;;;;;;;0.00;0.00;;;0.40;99.90;;;;;;6166050;23;20021;-78
2022/01/08 07:50:14;;;;;;;0.00;0.00;;;0.40;99.90;;;;;;6192184;23;20056;-78
2022/01/08 07:52:40;;;;;;;0.00;0.00;;;0.30;99.90;;;;;;6165586;23;20180;-76
2022/01/08 07:55:07;;;;;;;0.00;0.00;;;0.30;99.90;;;;;;6165446;23;20052;-79
2022/01/08 07:57:32;;;;;;;0.00;0.00;;;0.40;99.90;;;;;;6164357;23;20019;-80
2022/01/08 07:59:58;;;;;;;0.00;0.00;;;0.40;99.90;;;;;;6164729;23;20287;-80
2022/01/08 08:02:24;;;;;;;0.00;0.00;;;0.40;99.90;;;;;;6190601;23;19996;-80
2022/01/08 08:04:50;;;;;;;0.00;0.00;;;0.40;99.90;;;;;;6165686;23;20000;-76
2022/01/08 08:07:29;;;;;;;0.00;0.00;;;0.40;99.90;;;;;;6165059;23;20009;-82
2022/01/08 08:09:55;;;;;;;0.00;0.00;;;0.50;99.90;;;;;;6192728;23;20040;-82
2022/01/08 08:12:22;;;;;;;0.00;0.00;;;0.50;99.90;;;;;;6190997;23;19990;-80
2022/01/08 08:14:48;;;;;;;0.00;0.00;;;0.60;99.90;;;;;;6165991;23;20272;-84
2022/01/08 08:17:13;;;;;;;0.00;0.00;;;0.60;99.90;;;;;;6164993;23;20028;-80
2022/01/08 08:19:39;;;;;;;0.00;0.00;;;0.60;99.90;;;;;;6191252;23;19989;-80
2022/01/08 08:22:05;;;;;;;0.00;0.00;;;0.60;99.90;;;;;;6192341;23;19996;-78
2022/01/08 08:24:30;;;;;;;0.00;0.00;;;0.50;99.90;;;;;;6164495;23;20229;-82
2022/01/08 08:26:56;;;;;;;0.00;0.00;;;0.50;99.90;;;;;;6191834;23;19989;-78
2022/01/08 08:29:22;;;;;;;0.00;0.00;;;0.50;99.90;;;;;;6164859;23;19993;-81
2022/01/08 08:31:47;;;;;;;0.00;0.00;;;0.50;99.90;;;;;;6165461;23;20075;-79
2022/01/08 08:36:58;;;;;;;0.00;0.00;;;0.60;99.90;;;;;;6192489;23;20144;-80
2022/01/08 08:39:25;;;;;;;0.00;0.00;;;0.60;99.90;;;;;;6166370;23;19997;-84
2022/01/08 08:41:51;;;;;;;0.00;0.00;;;0.50;99.90;;;;;;6167431;23;20020;-78
2022/01/08 08:44:17;;;;;;;0.00;0.00;;;0.60;99.90;;;;;;6165245;23;19992;-80
2022/01/08 08:46:43;;;;;;;0.00;0.00;;;0.60;99.90;;;;;;6192108;23;19989;-79
2022/01/08 08:49:08;;;;;;;0.00;0.00;;;0.60;99.90;;;;;;6166721;23;20008;-83
2022/01/08 08:51:34;;;;;;;0.00;0.00;;;0.70;99.90;;;;;;6180176;23;20005;-86
2022/01/08 08:54:01;;;;;;;0.00;0.00;;;0.80;99.90;;;;;;6193199;23;19992;-80
2022/01/08 08:56:29;;;;;;;0.00;0.00;;;0.80;99.90;;;;;;6190887;23;20034;-80
2022/01/08 08:58:55;;;;;;;0.00;0.00;;;0.90;99.90;;;;;;6190025;23;20275;-76
2022/01/08 09:01:20;;;;;;;0.00;0.00;;;0.90;99.90;;;;;;6189012;23;20061;-76
2022/01/08 09:03:47;;;;;;;0.00;0.00;;;0.90;99.90;;;;;;6191125;23;20001;-83
2022/01/08 09:06:12;;;;;;;0.00;0.00;;;0.80;99.90;;;;;;6190705;23;19993;-81
2022/01/08 09:08:38;;;;;;;0.00;0.00;;;0.80;99.90;;;;;;6189482;23;20084;-78
2022/01/08 09:11:04;;;;;;;0.00;0.00;;;0.70;99.90;;;;;;6189453;23;20327;-81
2022/01/08 09:13:30;;;;;;;0.00;0.00;;;0.70;99.90;;;;;;6189113;23;19993;-73
2022/01/08 09:15:56;;;;;;;0.00;0.00;;;0.70;99.90;;;;;;6190502;23;20012;-80
2022/01/08 09:18:23;;;;;;;0.00;0.00;;;0.70;99.90;;;;;;6190549;23;20279;-76
2022/01/08 09:20:49;;;;;;;0.00;0.00;;;0.70;99.90;;;;;;6191565;23;20271;-81
2022/01/08 09:23:15;;;;;;;0.00;0.00;;;0.70;99.90;;;;;;6190180;23;19995;-84
2022/01/08 09:25:41;;;;;;;0.00;0.00;;;0.80;99.90;;;;;;6190474;23;20000;-81
2022/01/08 09:28:07;;;;;;;0.00;0.00;;;0.90;99.90;;;;;;6192429;23;19997;-79
2022/01/08 09:30:33;;;;;;;0.00;0.00;;;0.90;99.90;;;;;;6190343;23;20024;-83
2022/01/08 09:32:59;;;;;;;0.00;0.00;;;0.90;99.90;;;;;;6190930;23;20048;-80
2022/01/08 09:35:25;;;;;;;0.00;0.00;;;0.90;99.90;;;;;;6189626;23;20043;-83
2022/01/08 09:37:52;;;;;;;0.00;0.00;;;1.00;99.90;;;;;;6189788;23;19997;-78
2022/01/08 09:40:21;;;;;;;0.00;0.00;;;1.00;99.90;;;;;;6190246;23;20036;-82
2022/01/08 09:42:49;;;;;;;0.00;0.00;;;1.00;99.90;;;;;;6189771;23;20139;-81
2022/01/08 09:45:15;;;;;;;0.00;0.00;;;1.00;99.90;;;;;;6189098;23;19993;-81
2022/01/08 09:47:41;;;;;;;0.00;0.00;;;1.00;99.90;;;;;;6190526;23;19997;-80
2022/01/08 09:50:08;;;;;;;0.00;0.00;;;1.00;99.90;;;;;;6189369;23;19993;-75
2022/01/08 09:52:57;;;;;;;0.00;0.00;;;1.00;99.90;;;;;;6188834;23;20013;-76
2022/01/08 09:55:25;;;;;;;0.00;0.00;;;1.00;99.90;;;;;;6188486;23;19989;-77
2022/01/08 09:57:51;;;;;;;0.00;0.00;;;1.00;99.90;;;;;;6188814;23;20039;-74
2022/01/08 10:00:18;;;;;;;0.00;0.00;;;1.10;99.90;;;;;;6190710;23;20200;-76
2022/01/08 10:02:46;;;;;;;0.00;0.00;;;1.10;99.90;;;;;;6189656;23;20001;-73
2022/01/08 10:05:15;;;;;;;0.00;0.00;;;1.20;99.90;;;;;;6188954;23;19993;-74
2022/01/08 10:07:41;;;;;;;0.00;0.00;;;1.30;99.90;;;;;;6188225;23;20324;-72
2022/01/08 10:10:10;;;;;;;0.00;0.00;;;1.20;99.90;;;;;;6189721;23;20220;-75
2022/01/08 10:12:35;;;;;;;;;;;1.10;99.90;;;;;;6189595;23;19989;-79
2022/01/08 10:17:47;;;;;;;0.00;0.00;;;1.00;99.90;;;;;;6190306;23;20315;-77
2022/01/08 10:20:27;;;;;;;0.00;0.00;;;1.00;99.90;;;;;;6190266;23;19989;-78
2022/01/08 10:23:17;;;;;;;0.00;0.00;;;1.00;99.90;;;;;;6190616;23;20015;-76
2022/01/08 10:26:11;;;;;;;0.00;0.00;;;1.00;99.90;;;;;;6187480;23;19993;-74
2022/01/08 10:28:50;;;;;;;0.00;0.00;;;1.00;99.90;;;;;;6185436;23;20013;-80
2022/01/08 10:31:16;;;;;;;0.00;0.00;;;1.00;99.90;;;;;;6190567;23;20279;-76
2022/01/08 10:33:44;;;;;;;0.00;0.00;;;1.00;99.90;;;;;;6188543;23;19996;-79
2022/01/08 10:36:12;;;;;;;0.00;0.00;;;0.90;99.90;;;;;;6188715;23;20035;-73
2022/01/08 10:38:38;;;;;;;0.00;0.00;;;1.00;99.90;;;;;;6189860;23;20019;-79
2022/01/08 10:41:12;;;;;;;0.00;0.00;;;1.00;99.90;;;;;;6190308;23;20187;-81
2022/01/08 10:43:39;;;;;;;0.00;0.00;;;1.00;99.90;;;;;;6192906;23;20032;-84
2022/01/08 10:46:11;;;;;;;0.00;0.00;;;1.00;99.90;;;;;;6193915;23;20000;-82
2022/01/08 10:48:37;;;;;;;0.00;0.00;;;1.00;99.90;;;;;;6193616;23;20020;-81
2022/01/08 10:51:11;;;;;;;0.00;0.00;;;1.10;99.90;;;;;;6191423;23;20013;-81
2022/01/08 10:53:57;;;;;;;0.00;0.00;;;1.00;99.90;;;;;;6190449;23;20020;-81
2022/01/08 10:56:25;;;;;;;0.00;0.00;;;1.00;99.90;;;;;;6189452;23;19985;-80
2022/01/08 10:58:55;;;;;;;0.00;0.00;;;1.00;99.90;;;;;;6191723;23;20052;-79
2022/01/08 11:01:40;;;;;;;0.00;0.00;;;1.00;99.90;;;;;;6189677;23;19993;-79
2022/01/08 11:04:08;;;;;;;0.00;0.00;;;1.00;99.90;;;;;;6191183;23;20011;-79
2022/01/08 11:06:58;;;;;;;0.00;0.00;;;1.00;99.90;;;;;;6188147;23;20052;-78
2022/01/08 11:09:25;;;;;;;0.00;0.00;;;1.20;99.90;;;;;;6189477;23;20296;-81
2022/01/08 11:11:53;;;;;;;0.00;0.00;;;1.20;99.90;;;;;;6191534;23;20205;-80
2022/01/08 11:14:45;;;;;;;0.00;0.00;;;1.30;99.90;;;;;;6190415;23;19996;-81
2022/01/08 11:17:37;;;;;;;0.00;0.00;;;1.30;99.90;;;;;;6191612;23;20043;-81
2022/01/08 11:20:22;;;;;;;0.00;0.00;;;1.30;99.90;;;;;;6184236;23;20180;-80
2022/01/08 11:23:00;;;;;;;0.00;0.00;;;1.40;99.90;;;;;;6190026;23;20012;-77
2022/01/08 11:25:28;;;;;;;0.00;0.00;;;1.50;99.90;;;;;;6190885;23;19989;-81
2022/01/08 11:28:10;;;;;;;0.00;0.00;;;1.50;99.90;;;;;;6189669;23;20347;-73
2022/01/08 11:30:42;;;;;;;0.00;0.00;;;1.60;99.90;;;;;;6191773;23;19992;-81
2022/01/08 11:33:17;;;;;;;0.00;0.00;;;1.60;99.90;;;;;;6191853;23;19990;-74
2022/01/08 11:35:44;;;;;;;0.00;0.00;;;1.60;99.90;;;;;;6190059;23;20000;-77
2022/01/08 11:38:12;;;;;;;0.00;0.00;;;1.70;99.90;;;;;;6191091;23;20176;-79
2022/01/08 11:40:41;;;;;;;0.00;0.00;;;1.70;99.90;;;;;;6189419;23;19997;-81
2022/01/08 11:43:08;;;;;;;;;;;1.70;99.90;;;;;;6190571;23;20001;-80
2022/01/08 11:45:40;;;;;;;0.00;0.00;;;1.70;99.90;;;;;;6191015;23;19916;-78
2022/01/08 11:48:09;;;;;;;0.00;0.00;;;1.60;99.90;;;;;;6190103;23;20001;-84
2022/01/08 11:50:35;;;;;;;0.00;0.00;;;1.50;99.90;;;;;;6191913;23;20032;-84
2022/01/08 11:53:25;;;;;;;0.00;0.00;;;1.50;99.90;;;;;;6165132;23;19989;-80
2022/01/08 11:56:00;;;;;;;0.00;0.00;;;1.40;99.90;;;;;;6165074;23;19989;-77
2022/01/08 11:58:31;;;;;;;0.00;0.00;;;1.40;99.90;;;;;;6164681;23;20056;-75
2022/01/08 12:01:02;;;;;;;0.00;0.00;;;1.40;99.90;;;;;;6165836;23;19996;-74
2022/01/08 12:03:28;;;;;;;0.00;0.00;;;1.40;99.90;;;;;;6165487;23;19993;-76
2022/01/08 12:06:20;;;;;;;0.00;0.00;;;1.30;99.90;;;;;;6166287;23;20061;-76
2022/01/08 12:08:49;;;;;;;0.00;0.00;;;1.30;99.90;;;;;;6165712;23;20020;-78
2022/01/08 12:11:15;;;;;;;0.00;0.00;;;1.30;99.90;;;;;;6166407;23;19996;-80
2022/01/08 12:13:48;;;;;;;0.00;0.00;;;1.20;99.90;;;;;;6164897;23;20229;-82
2022/01/08 12:16:42;;;;;;;0.00;0.00;;;1.20;99.90;;;;;;6165247;23;19993;-81
2022/01/08 12:19:10;;;;;;;0.00;0.00;;;1.30;99.90;;;;;;6185991;23;20013;-80
2022/01/08 12:21:41;;;;;;;0.00;0.00;;;1.30;99.90;;;;;;6164361;23;19993;-74
2022/01/08 12:24:25;;;;;;;0.00;0.00;;;1.20;99.90;;;;;;6165236;23;20060;-78
2022/01/08 12:26:55;;;;;;;0.00;0.00;;;1.40;99.90;;;;;;6163454;23;20032;-85
2022/01/08 12:29:41;;;;;;;0.00;0.00;;;1.40;99.90;;;;;;6164914;23;19997;-85
2022/01/08 12:32:36;;;;;;;0.00;0.00;;;1.40;99.90;;;;;;6165582;23;19993;-79
2022/01/08 12:35:38;;;;;;;0.00;0.00;;;1.50;99.90;;;;;;6164163;23;20077;-81
2022/01/08 12:38:07;;;;;;;0.00;0.00;;;1.50;99.90;;;;;;6017537;23;19995;-80
2022/01/08 12:40:36;;;;;;;0.00;0.00;;;1.50;99.90;;;;;;6018108;23;20003;-80
2022/01/08 12:43:20;;;;;;;0.00;0.00;;;1.40;99.90;;;;;;6042487;23;19995;-80
2022/01/08 12:45:48;;;;;;;0.00;0.00;;;1.40;99.90;;;;;;6018641;23;20229;-78
2022/01/08 12:48:15;;;;;;;0.00;0.00;;;1.40;99.90;;;;;;6042402;23;20042;-78
2022/01/08 12:50:43;;;;;;;0.00;0.00;;;1.40;99.90;;;;;;6017737;23;20015;-80
2022/01/08 12:53:11;;;;;;;0.00;0.00;;;1.40;99.90;;;;;;6018426;23;19995;-78
2022/01/08 12:55:43;;;;;;;0.00;0.00;;;1.40;99.90;;;;;;6017325;23;20002;-76
2022/01/08 12:58:15;;;;;;;0.00;0.00;;;1.50;99.90;;;;;;6017853;23;20120;-76
2022/01/08 13:01:25;;;;;;;0.00;0.00;;;1.60;99.90;;;;;;6041104;23;20205;-75
2022/01/08 13:04:00;;;;;;;0.00;0.00;;;1.60;99.90;;;;;;5957077;24;20014;-80
2022/01/08 13:06:32;;;;;;;0.00;0.00;;;1.70;99.90;;;;;;5934050;24;20003;-77
2022/01/08 13:08:59;;;;;;;0.00;0.00;;;1.80;99.90;;;;;;5934527;24;20294;-80
2022/01/08 13:11:36;;;;;;;0.00;0.00;;;1.80;99.90;;;;;;5956810;24;19996;-78
2022/01/08 13:14:06;;;;;;;0.00;0.00;;;1.80;99.90;;;;;;5963462;23;20264;-75
2022/01/08 13:16:49;;;;;;;0.00;0.00;;;1.70;99.90;;;;;;6069708;23;19991;-78
2022/01/08 13:19:22;;;;;;;0.00;0.00;;;1.70;99.90;;;;;;6046570;23;19999;-79
2022/01/08 13:21:52;;;;;;;0.00;0.00;;;1.60;99.90;;;;;;6046890;23;20006;-79
2022/01/08 13:24:19;;;;;;;0.00;0.00;;;1.50;99.90;;;;;;6070636;23;20327;-77
2022/01/08 13:26:52;;;;;;;0.00;0.00;;;1.60;99.90;;;;;;6046030;23;19990;-84
2022/01/08 13:29:27;;;;;;;0.00;0.00;;;1.50;99.90;;;;;;6070393;23;19999;-76
2022/01/08 13:31:57;;;;;;;0.00;0.00;;;1.60;99.90;;;;;;6070130;23;20296;-76